createdAt,value
2023-02-13T00:00:56.796Z,8.33
2023-02-13T00:01:56.461Z,8.30
2023-02-13T00:02:56.465Z,8.31
2023-02-13T00:03:56.515Z,8.28
2023-02-13T00:04:56.429Z,8.34
2023-02-13T00:05:56.433Z,8.27
2023-02-13T00:06:56.397Z,8.28
2023-02-13T00:07:57.337Z,8.31
2023-02-13T00:08:56.373Z,8.33
2023-02-13T00:09:56.360Z,8.37
2023-02-13T00:10:56.739Z,8.36
2023-02-13T00:11:56.330Z,8.33
2023-02-13T00:12:56.384Z,8.36
2023-02-13T00:13:56.306Z,8.37
2023-02-13T00:14:56.293Z,8.42
2023-02-13T00:15:56.321Z,8.36
2023-02-13T00:16:56.267Z,8.27
2023-02-13T00:17:56.256Z,8.27
2023-02-13T00:18:56.251Z,8.24
2023-02-13T00:19:56.230Z,8.18
2023-02-13T00:20:56.541Z,8.10
2023-02-13T00:21:56.208Z,8.13
2023-02-13T00:22:56.188Z,8.13
2023-02-13T00:23:56.178Z,8.13
2023-02-13T00:24:56.164Z,8.15
2023-02-13T00:25:56.156Z,8.08
2023-02-13T00:26:56.152Z,8.06
2023-02-13T00:27:56.127Z,8.09
2023-02-13T00:28:56.135Z,8.12
2023-02-13T00:29:56.097Z,8.08
2023-02-13T00:30:56.598Z,8.09
2023-02-13T00:31:56.191Z,8.06
2023-02-13T00:32:56.052Z,8.09
2023-02-13T00:33:56.037Z,8.08
2023-02-13T00:34:56.027Z,8.06
2023-02-13T00:35:56.018Z,8.03
2023-02-13T00:36:56.013Z,8.08
2023-02-13T00:37:55.990Z,8.08
2023-02-13T00:38:55.970Z,8.03
2023-02-13T00:39:55.957Z,8.08
2023-02-13T00:40:56.270Z,8.06
2023-02-13T00:41:55.943Z,8.06
2023-02-13T00:42:55.917Z,8.09
2023-02-13T00:43:55.906Z,8.08
2023-02-13T00:44:55.916Z,8.06
2023-02-13T00:45:55.881Z,8.06
2023-02-13T00:46:55.882Z,8.06
2023-02-13T00:47:55.870Z,8.10
2023-02-13T00:48:55.836Z,8.09
2023-02-13T00:49:55.829Z,8.09
2023-02-13T00:50:56.240Z,8.15
2023-02-13T00:51:55.817Z,8.09
2023-02-13T00:52:55.783Z,8.12
2023-02-13T00:53:55.773Z,8.12
2023-02-13T00:54:55.756Z,8.16
2023-02-13T00:55:55.743Z,8.18
2023-02-13T00:56:55.745Z,8.18
2023-02-13T00:57:55.748Z,8.13
2023-02-13T00:58:55.704Z,8.13
2023-02-13T00:59:55.703Z,8.15
2023-02-13T01:00:56.229Z,8.09
2023-02-13T01:01:55.760Z,8.05
2023-02-13T01:02:55.668Z,8.05
2023-02-13T01:03:55.703Z,8.03
2023-02-13T01:04:55.633Z,8.00
2023-02-13T01:05:55.618Z,8.00
2023-02-13T01:06:55.632Z,7.90
2023-02-13T01:07:55.596Z,7.87
2023-02-13T01:08:55.575Z,7.75
2023-02-13T01:09:55.592Z,7.67
2023-02-13T01:10:56.032Z,7.61
2023-02-13T01:11:55.552Z,7.61
2023-02-13T01:12:55.532Z,7.61
2023-02-13T01:13:55.516Z,7.54
2023-02-13T01:14:55.502Z,7.43
2023-02-13T01:15:55.663Z,7.32
2023-02-13T01:16:55.539Z,7.29
2023-02-13T01:17:55.465Z,7.25
2023-02-13T01:18:55.450Z,7.18
2023-02-13T01:19:55.438Z,7.11
2023-02-13T01:20:55.842Z,7.10
2023-02-13T01:21:55.429Z,7.10
2023-02-13T01:22:55.405Z,7.10
2023-02-13T01:23:55.387Z,7.15
2023-02-13T01:24:55.367Z,7.07
2023-02-13T01:25:55.358Z,7.05
2023-02-13T01:26:55.361Z,6.99
2023-02-13T01:27:55.334Z,6.85
2023-02-13T01:28:55.333Z,6.79
2023-02-13T01:29:55.309Z,6.79
2023-02-13T01:30:55.590Z,6.77
2023-02-13T01:31:55.428Z,6.78
2023-02-13T01:32:55.290Z,6.75
2023-02-13T01:33:55.256Z,6.72
2023-02-13T01:34:55.246Z,6.64
2023-02-13T01:35:55.242Z,6.56
2023-02-13T01:36:55.218Z,6.54
2023-02-13T01:37:55.215Z,6.49
2023-02-13T01:38:55.200Z,6.36
2023-02-13T01:39:55.174Z,6.30
2023-02-13T01:40:55.710Z,6.26
2023-02-13T01:41:55.143Z,6.28
2023-02-13T01:42:55.147Z,6.30
2023-02-13T01:43:55.123Z,6.27
2023-02-13T01:44:55.104Z,6.26
2023-02-13T01:45:55.099Z,6.22
2023-02-13T01:46:55.229Z,6.22
2023-02-13T01:47:55.081Z,6.09
2023-02-13T01:48:55.088Z,6.08
2023-02-13T01:49:55.047Z,6.08
2023-02-13T01:50:55.257Z,6.08
2023-02-13T01:51:55.017Z,5.99
2023-02-13T01:52:55.014Z,6.01
2023-02-13T01:53:54.984Z,5.98
2023-02-13T01:54:54.978Z,5.97
2023-02-13T01:55:54.971Z,5.98
2023-02-13T01:56:54.950Z,5.93
2023-02-13T01:57:54.958Z,5.83
2023-02-13T01:58:54.917Z,5.75
2023-02-13T01:59:54.912Z,5.65
2023-02-13T02:00:55.268Z,5.69
2023-02-13T02:01:55.134Z,5.65
2023-02-13T02:02:54.891Z,5.65
2023-02-13T02:03:54.867Z,5.61
2023-02-13T02:04:54.860Z,5.62
2023-02-13T02:05:54.825Z,5.54
2023-02-13T02:06:54.813Z,5.38
2023-02-13T02:07:54.812Z,5.33
2023-02-13T02:08:54.788Z,5.29
2023-02-13T02:09:54.772Z,5.28
2023-02-13T02:10:55.112Z,5.25
2023-02-13T02:11:54.742Z,5.25
2023-02-13T02:12:54.748Z,5.26
2023-02-13T02:13:54.716Z,5.26
2023-02-13T02:14:54.712Z,5.21
2023-02-13T02:15:54.758Z,5.25
2023-02-13T02:16:54.684Z,5.15
2023-02-13T02:17:54.681Z,5.08
2023-02-13T02:18:54.656Z,5.02
2023-02-13T02:19:54.647Z,5.00
2023-02-13T02:20:54.706Z,5.02
2023-02-13T02:21:54.622Z,4.99
2023-02-13T02:22:54.621Z,4.94
2023-02-13T02:23:54.600Z,4.92
2023-02-13T02:24:54.579Z,4.89
2023-02-13T02:25:54.559Z,4.90
2023-02-13T02:26:54.551Z,4.92
2023-02-13T02:27:54.548Z,4.82
2023-02-13T02:28:54.534Z,4.77
2023-02-13T02:29:54.509Z,4.74
2023-02-13T02:30:54.647Z,4.66
2023-02-13T02:31:54.649Z,4.59
2023-02-13T02:32:54.492Z,4.49
2023-02-13T02:33:54.468Z,4.62
2023-02-13T02:34:54.451Z,4.63
2023-02-13T02:35:54.432Z,4.66
2023-02-13T02:36:54.463Z,4.68
2023-02-13T02:37:54.442Z,4.71
2023-02-13T02:38:54.397Z,4.66
2023-02-13T02:39:54.394Z,4.66
2023-02-13T02:40:54.744Z,4.60
2023-02-13T02:41:54.359Z,4.58
2023-02-13T02:42:54.346Z,4.56
2023-02-13T02:43:54.349Z,4.55
2023-02-13T02:44:54.340Z,4.53
2023-02-13T02:45:54.316Z,4.45
2023-02-13T02:46:54.423Z,4.37
2023-02-13T02:47:54.280Z,4.35
2023-02-13T02:48:54.314Z,4.38
2023-02-13T02:49:54.285Z,4.35
2023-02-13T02:50:54.669Z,4.34
2023-02-13T02:51:54.252Z,4.35
2023-02-13T02:52:54.244Z,4.30
2023-02-13T02:53:54.234Z,4.31
2023-02-13T02:54:54.192Z,4.28
2023-02-13T02:55:54.186Z,4.28
2023-02-13T02:56:54.166Z,4.23
2023-02-13T02:57:54.149Z,4.20
2023-02-13T02:58:54.155Z,4.16
2023-02-13T02:59:54.123Z,4.16
2023-02-13T03:00:54.182Z,4.17
2023-02-13T03:01:54.099Z,4.17
2023-02-13T03:02:54.107Z,4.12
2023-02-13T03:03:54.128Z,4.14
2023-02-13T03:04:54.063Z,4.14
2023-02-13T03:05:54.048Z,4.13
2023-02-13T03:06:54.034Z,4.13
2023-02-13T03:07:54.023Z,4.08
2023-02-13T03:08:54.049Z,4.16
2023-02-13T03:09:54.001Z,4.08
2023-02-13T03:10:53.987Z,4.12
2023-02-13T03:11:53.971Z,4.06
2023-02-13T03:12:53.963Z,4.08
2023-02-13T03:13:53.958Z,4.06
2023-02-13T03:14:53.937Z,4.06
2023-02-13T03:15:53.921Z,4.04
2023-02-13T03:16:53.907Z,3.98
2023-02-13T03:17:53.901Z,3.98
2023-02-13T03:18:53.896Z,4.02
2023-02-13T03:19:53.879Z,4.02
2023-02-13T03:20:53.863Z,4.05
2023-02-13T03:21:53.865Z,4.08
2023-02-13T03:22:53.839Z,4.05
2023-02-13T03:23:53.831Z,4.04
2023-02-13T03:24:53.839Z,4.06
2023-02-13T03:25:53.796Z,4.06
2023-02-13T03:26:53.782Z,4.10
2023-02-13T03:27:53.770Z,4.14
2023-02-13T03:28:53.775Z,4.19
2023-02-13T03:29:53.739Z,4.20
2023-02-13T03:30:53.776Z,4.23
2023-02-13T03:31:53.743Z,4.24
2023-02-13T03:32:53.706Z,4.22
2023-02-13T03:33:53.705Z,4.20
2023-02-13T03:34:53.678Z,4.19
2023-02-13T03:35:53.665Z,4.17
2023-02-13T03:36:53.667Z,4.19
2023-02-13T03:37:53.639Z,4.19
2023-02-13T03:38:53.639Z,4.14
2023-02-13T03:39:53.611Z,4.20
2023-02-13T03:40:53.625Z,4.19
2023-02-13T03:41:53.594Z,4.17
2023-02-13T03:42:53.580Z,4.19
2023-02-13T03:43:53.581Z,4.19
2023-02-13T03:44:53.554Z,4.20
2023-02-13T03:45:53.651Z,4.17
2023-02-13T03:46:53.537Z,4.14
2023-02-13T03:47:53.514Z,4.16
2023-02-13T03:48:53.575Z,4.14
2023-02-13T03:49:53.501Z,4.10
2023-02-13T03:50:53.475Z,4.10
2023-02-13T03:51:53.467Z,4.04
2023-02-13T03:52:53.453Z,4.05
2023-02-13T03:53:53.462Z,4.05
2023-02-13T03:54:53.425Z,4.05
2023-02-13T03:55:53.410Z,4.02
2023-02-13T03:56:53.455Z,4.05
2023-02-13T03:57:53.385Z,4.05
2023-02-13T03:58:53.415Z,4.01
2023-02-13T03:59:53.364Z,3.98
2023-02-13T04:00:53.372Z,3.98
2023-02-13T04:01:53.355Z,3.98
2023-02-13T04:02:53.324Z,3.96
2023-02-13T04:03:53.306Z,3.99
2023-02-13T04:04:53.313Z,3.98
2023-02-13T04:05:53.287Z,4.01
2023-02-13T04:06:53.268Z,3.99
2023-02-13T04:07:53.255Z,3.98
2023-02-13T04:08:53.247Z,3.96
2023-02-13T04:09:53.240Z,3.95
2023-02-13T04:10:53.215Z,3.95
2023-02-13T04:11:53.210Z,3.96
2023-02-13T04:12:53.211Z,3.96
2023-02-13T04:13:53.177Z,3.92
2023-02-13T04:14:53.179Z,3.91
2023-02-13T04:15:53.150Z,3.94
2023-02-13T04:16:53.178Z,3.91
2023-02-13T04:17:53.133Z,3.87
2023-02-13T04:18:53.110Z,3.84
2023-02-13T04:19:53.115Z,3.80
2023-02-13T04:20:53.090Z,3.78
2023-02-13T04:21:53.073Z,3.77
2023-02-13T04:22:53.059Z,3.80
2023-02-13T04:23:53.047Z,3.78
2023-02-13T04:24:53.052Z,3.69
2023-02-13T04:25:53.018Z,3.69
2023-02-13T04:26:53.013Z,3.66
2023-02-13T04:27:52.993Z,3.65
2023-02-13T04:28:53.007Z,3.60
2023-02-13T04:29:53.000Z,3.60
2023-02-13T04:30:53.082Z,3.62
2023-02-13T04:31:53.075Z,3.59
2023-02-13T04:32:52.994Z,3.59
2023-02-13T04:33:52.929Z,3.59
2023-02-13T04:34:52.968Z,3.55
2023-02-13T04:35:52.893Z,3.53
2023-02-13T04:36:52.897Z,3.53
2023-02-13T04:37:52.863Z,3.51
2023-02-13T04:38:52.868Z,3.50
2023-02-13T04:39:52.861Z,3.53
2023-02-13T04:40:52.838Z,3.50
2023-02-13T04:41:52.816Z,3.51
2023-02-13T04:42:52.804Z,3.48
2023-02-13T04:43:52.793Z,3.47
2023-02-13T04:44:52.823Z,3.40
2023-02-13T04:45:52.791Z,3.42
2023-02-13T04:46:52.767Z,3.36
2023-02-13T04:47:52.739Z,3.37
2023-02-13T04:48:52.732Z,3.37
2023-02-13T04:49:52.723Z,3.34
2023-02-13T04:50:52.701Z,3.36
2023-02-13T04:51:52.685Z,3.41
2023-02-13T04:52:52.682Z,3.40
2023-02-13T04:53:52.660Z,3.37
2023-02-13T04:54:52.669Z,3.40
2023-02-13T04:55:52.634Z,3.34
2023-02-13T04:56:52.624Z,3.34
2023-02-13T04:57:52.607Z,3.32
2023-02-13T04:58:52.599Z,3.34
2023-02-13T04:59:52.578Z,3.31
2023-02-13T05:00:52.611Z,3.31
2023-02-13T05:01:52.559Z,3.31
2023-02-13T05:02:52.553Z,3.28
2023-02-13T05:03:52.531Z,3.28
2023-02-13T05:04:52.521Z,3.25
2023-02-13T05:05:52.523Z,3.23
2023-02-13T05:06:52.527Z,3.25
2023-02-13T05:07:52.482Z,3.19
2023-02-13T05:08:52.466Z,3.22
2023-02-13T05:09:52.450Z,3.22
2023-02-13T05:10:52.459Z,3.23
2023-02-13T05:11:52.428Z,3.21
2023-02-13T05:12:52.412Z,3.18
2023-02-13T05:13:52.400Z,3.16
2023-02-13T05:14:52.386Z,3.16
2023-02-13T05:15:52.451Z,3.21
2023-02-13T05:16:52.766Z,3.16
2023-02-13T05:17:52.352Z,3.13
2023-02-13T05:18:52.336Z,3.13
2023-02-13T05:19:52.324Z,3.14
2023-02-13T05:20:52.324Z,3.13
2023-02-13T05:21:52.298Z,3.14
2023-02-13T05:22:52.292Z,3.14
2023-02-13T05:23:52.273Z,3.13
2023-02-13T05:24:52.259Z,3.05
2023-02-13T05:25:52.256Z,3.11
2023-02-13T05:26:52.236Z,3.05
2023-02-13T05:27:52.217Z,3.07
2023-02-13T05:28:52.217Z,3.08
2023-02-13T05:29:52.195Z,3.04
2023-02-13T05:30:52.318Z,3.04
2023-02-13T05:31:52.352Z,3.01
2023-02-13T05:32:52.176Z,3.04
2023-02-13T05:33:52.141Z,2.98
2023-02-13T05:34:52.137Z,3.03
2023-02-13T05:35:52.135Z,2.97
2023-02-13T05:36:52.111Z,2.92
2023-02-13T05:37:52.090Z,2.83
2023-02-13T05:38:52.114Z,2.74
2023-02-13T05:39:52.066Z,2.72
2023-02-13T05:40:52.074Z,2.74
2023-02-13T05:41:52.039Z,2.69
2023-02-13T05:42:52.026Z,2.68
2023-02-13T05:43:52.025Z,2.65
2023-02-13T05:44:52.012Z,2.65
2023-02-13T05:45:52.008Z,2.65
2023-02-13T05:46:51.981Z,2.65
2023-02-13T05:47:51.962Z,2.65
2023-02-13T05:48:51.979Z,2.71
2023-02-13T05:49:51.941Z,2.64
2023-02-13T05:50:51.941Z,2.64
2023-02-13T05:51:51.922Z,2.68
2023-02-13T05:52:51.904Z,2.60
2023-02-13T05:53:51.886Z,2.62
2023-02-13T05:54:51.874Z,2.56
2023-02-13T05:55:51.873Z,2.57
2023-02-13T05:56:51.848Z,2.56
2023-02-13T05:57:51.830Z,2.51
2023-02-13T05:58:51.817Z,2.43
2023-02-13T05:59:51.809Z,2.38
2023-02-13T06:00:51.806Z,2.36
2023-02-13T06:01:51.787Z,2.38
2023-02-13T06:02:51.868Z,2.42
2023-02-13T06:03:51.818Z,2.43
2023-02-13T06:04:51.768Z,2.44
2023-02-13T06:05:51.753Z,2.39
2023-02-13T06:06:51.718Z,2.39
2023-02-13T06:07:51.710Z,2.36
2023-02-13T06:08:51.686Z,2.31
2023-02-13T06:09:51.676Z,2.28
2023-02-13T06:10:51.710Z,2.29
2023-02-13T06:11:51.663Z,2.33
2023-02-13T06:12:51.653Z,2.31
2023-02-13T06:13:51.629Z,2.32
2023-02-13T06:14:51.616Z,2.28
2023-02-13T06:15:51.708Z,2.28
2023-02-13T06:16:51.602Z,2.26
2023-02-13T06:17:51.571Z,2.25
2023-02-13T06:18:51.555Z,2.26
2023-02-13T06:19:51.553Z,2.24
2023-02-13T06:20:51.556Z,2.25
2023-02-13T06:21:51.536Z,2.25
2023-02-13T06:22:51.510Z,2.25
2023-02-13T06:23:51.497Z,2.25
2023-02-13T06:24:51.482Z,2.33
2023-02-13T06:25:51.474Z,2.31
2023-02-13T06:26:51.471Z,2.32
2023-02-13T06:27:51.443Z,2.26
2023-02-13T06:28:51.435Z,2.26
2023-02-13T06:29:51.418Z,2.28
2023-02-13T06:30:51.645Z,2.29
2023-02-13T06:31:51.443Z,2.26
2023-02-13T06:32:51.390Z,2.29
2023-02-13T06:33:51.372Z,2.25
2023-02-13T06:34:51.356Z,2.26
2023-02-13T06:35:51.343Z,2.24
2023-02-13T06:36:51.374Z,2.26
2023-02-13T06:37:51.320Z,2.22
2023-02-13T06:38:51.299Z,2.24
2023-02-13T06:39:51.288Z,2.20
2023-02-13T06:40:51.280Z,2.22
2023-02-13T06:41:51.284Z,2.22
2023-02-13T06:42:51.251Z,2.25
2023-02-13T06:43:51.247Z,2.29
2023-02-13T06:44:51.230Z,2.29
2023-02-13T06:45:51.222Z,2.38
2023-02-13T06:46:51.308Z,2.44
2023-02-13T06:47:51.193Z,2.42
2023-02-13T06:48:51.176Z,2.44
2023-02-13T06:49:51.165Z,2.42
2023-02-13T06:50:51.154Z,2.43
2023-02-13T06:51:51.155Z,2.39
2023-02-13T06:52:51.154Z,2.38
2023-02-13T06:53:51.114Z,2.38
2023-02-13T06:54:51.102Z,2.46
2023-02-13T06:55:51.088Z,2.47
2023-02-13T06:56:51.093Z,2.47
2023-02-13T06:57:51.060Z,2.47
2023-02-13T06:58:51.045Z,2.50
2023-02-13T06:59:51.032Z,2.46
2023-02-13T07:00:51.121Z,2.49
2023-02-13T07:01:51.029Z,2.53
2023-02-13T07:02:51.015Z,2.53
2023-02-13T07:03:50.984Z,2.51
2023-02-13T07:04:50.969Z,2.53
2023-02-13T07:05:50.957Z,2.54
2023-02-13T07:06:50.961Z,2.56
2023-02-13T07:07:50.934Z,2.61
2023-02-13T07:08:50.943Z,2.54
2023-02-13T07:09:50.908Z,2.56
2023-02-13T07:10:50.890Z,2.54
2023-02-13T07:11:52.095Z,2.53
2023-02-13T07:13:03.665Z,2.57
2023-02-13T07:13:50.861Z,2.62
2023-02-13T07:14:50.846Z,2.64
2023-02-13T07:15:50.908Z,2.62
2023-02-13T07:16:50.813Z,2.75
2023-02-13T07:17:50.819Z,3.04
2023-02-13T07:18:50.789Z,3.19
2023-02-13T07:19:50.776Z,3.13
2023-02-13T07:20:50.763Z,3.22
2023-02-13T07:21:50.751Z,3.28
2023-02-13T07:22:50.756Z,3.26
2023-02-13T07:23:50.759Z,3.23
2023-02-13T07:24:50.734Z,3.23
2023-02-13T07:25:50.699Z,3.32
2023-02-13T07:26:50.681Z,3.25
2023-02-13T07:27:50.704Z,3.22
2023-02-13T07:28:56.974Z,3.21
2023-02-13T07:29:50.652Z,3.04
2023-02-13T07:30:50.701Z,3.04
2023-02-13T07:31:50.668Z,3.07
2023-02-13T07:32:50.625Z,3.05
2023-02-13T07:33:50.595Z,3.07
2023-02-13T07:35:01.224Z,2.83
2023-02-13T07:35:51.576Z,2.80
2023-02-13T07:36:50.562Z,2.82
2023-02-13T07:37:50.561Z,2.86
2023-02-13T07:38:50.537Z,2.89
2023-02-13T07:39:50.525Z,3.01
2023-02-13T07:40:50.544Z,3.03
2023-02-13T07:41:50.498Z,3.08
2023-02-13T07:42:50.513Z,3.13
2023-02-13T07:43:50.481Z,3.18
2023-02-13T07:44:50.471Z,3.16
2023-02-13T07:45:50.447Z,3.14
2023-02-13T07:46:50.521Z,3.11
2023-02-13T07:47:50.437Z,3.13
2023-02-13T07:48:50.409Z,3.10
2023-02-13T07:49:50.397Z,3.16
2023-02-13T07:50:50.387Z,3.21
2023-02-13T07:51:50.366Z,3.26
2023-02-13T07:52:50.372Z,3.29
2023-02-13T07:53:50.347Z,3.32
2023-02-13T07:54:50.336Z,3.37
2023-02-13T07:55:50.320Z,3.34
2023-02-13T07:56:50.334Z,3.44
2023-02-13T07:57:50.310Z,3.51
2023-02-13T07:58:50.279Z,3.58
2023-02-13T07:59:50.282Z,3.56
2023-02-13T08:00:50.274Z,3.62
2023-02-13T08:01:50.301Z,3.70
2023-02-13T08:02:50.258Z,3.81
2023-02-13T08:03:50.306Z,3.94
2023-02-13T08:04:50.200Z,4.01
2023-02-13T08:05:50.196Z,4.08
2023-02-13T08:06:50.176Z,4.14
2023-02-13T08:07:50.183Z,4.12
2023-02-13T08:08:50.154Z,4.20
2023-02-13T08:09:50.141Z,4.24
2023-02-13T08:10:50.121Z,4.23
2023-02-13T08:11:50.119Z,4.13
2023-02-13T08:12:50.140Z,4.16
2023-02-13T08:13:50.094Z,4.24
2023-02-13T08:14:50.071Z,4.28
2023-02-13T08:15:50.055Z,4.45
2023-02-13T08:16:50.100Z,5.23
2023-02-13T08:17:50.044Z,6.38
2023-02-13T08:18:50.015Z,6.97
2023-02-13T08:19:50.011Z,7.32
2023-02-13T08:20:49.991Z,7.76
2023-02-13T08:21:49.982Z,8.01
2023-02-13T08:22:49.983Z,8.58
2023-02-13T08:23:49.956Z,8.79
2023-02-13T08:24:49.960Z,9.39
2023-02-13T08:25:49.935Z,10.05
2023-02-13T08:26:49.910Z,10.42
2023-02-13T08:27:49.914Z,10.16
2023-02-13T08:28:49.904Z,10.31
2023-02-13T08:29:49.876Z,10.78
2023-02-13T08:30:49.873Z,11.22
2023-02-13T08:31:49.918Z,11.19
2023-02-13T08:32:54.320Z,11.12
2023-02-13T08:33:49.817Z,11.08
2023-02-13T08:34:49.808Z,11.11
2023-02-13T08:35:49.785Z,11.44
2023-02-13T08:36:49.773Z,12.17
2023-02-13T08:37:49.758Z,12.50
2023-02-13T08:38:49.772Z,12.50
2023-02-13T08:39:49.737Z,12.47
2023-02-13T08:40:49.716Z,12.60
2023-02-13T08:41:49.709Z,12.85
2023-02-13T08:42:49.692Z,13.00
2023-02-13T08:43:49.696Z,13.18
2023-02-13T08:44:49.704Z,12.83
2023-02-13T08:45:49.803Z,12.85
2023-02-13T08:46:49.636Z,12.80
2023-02-13T08:47:49.628Z,12.85
2023-02-13T08:48:49.634Z,12.86
2023-02-13T08:49:49.599Z,12.79
2023-02-13T08:50:49.590Z,12.75
2023-02-13T08:51:49.582Z,12.97
2023-02-13T08:52:49.560Z,13.54
2023-02-13T08:53:49.560Z,13.77
2023-02-13T08:54:49.537Z,13.74
2023-02-13T08:55:49.524Z,13.83
2023-02-13T08:56:49.507Z,13.75
2023-02-13T08:57:49.493Z,14.15
2023-02-13T08:58:49.500Z,14.30
2023-02-13T08:59:49.472Z,14.25
2023-02-13T09:00:49.516Z,14.23
2023-02-13T09:01:49.448Z,14.07
2023-02-13T09:02:49.484Z,13.92
2023-02-13T09:03:49.429Z,14.32
2023-02-13T09:04:49.398Z,14.54
2023-02-13T09:05:49.390Z,14.78
2023-02-13T09:06:49.374Z,15.18
2023-02-13T09:07:49.360Z,15.29
2023-02-13T09:08:49.370Z,15.39
2023-02-13T09:09:49.343Z,15.40
2023-02-13T09:10:49.321Z,15.40
2023-02-13T09:11:49.309Z,15.61
2023-02-13T09:12:49.309Z,15.86
2023-02-13T09:13:49.303Z,15.76
2023-02-13T09:14:49.270Z,15.61
2023-02-13T09:15:49.262Z,15.51
2023-02-13T09:16:49.339Z,15.25
2023-02-13T09:17:49.234Z,15.18
2023-02-13T09:18:49.245Z,15.31
2023-02-13T09:19:49.204Z,15.21
2023-02-13T09:20:49.192Z,15.11
2023-02-13T09:21:49.182Z,15.17
2023-02-13T09:22:49.168Z,15.27
2023-02-13T09:23:49.172Z,15.47
2023-02-13T09:24:49.147Z,15.68
2023-02-13T09:25:49.149Z,15.97
2023-02-13T09:26:49.120Z,15.94
2023-02-13T09:27:49.105Z,15.68
2023-02-13T09:28:49.168Z,15.67
2023-02-13T09:29:49.078Z,15.94
2023-02-13T09:30:49.186Z,16.23
2023-02-13T09:31:49.253Z,16.13
2023-02-13T09:32:49.064Z,16.04
2023-02-13T09:33:49.048Z,16.05
2023-02-13T09:34:49.018Z,16.33
2023-02-13T09:35:49.014Z,16.41
2023-02-13T09:36:48.993Z,16.58
2023-02-13T09:37:48.998Z,16.42
2023-02-13T09:38:48.978Z,16.31
2023-02-13T09:39:48.950Z,16.23
2023-02-13T09:40:48.935Z,16.10
2023-02-13T09:41:48.929Z,16.39
2023-02-13T09:42:48.913Z,16.51
2023-02-13T09:43:48.915Z,16.33
2023-02-13T09:44:48.907Z,16.26
2023-02-13T09:45:49.002Z,16.72
2023-02-13T09:46:48.981Z,16.94
2023-02-13T09:47:48.853Z,16.89
2023-02-13T09:48:48.865Z,17.05
2023-02-13T09:49:48.846Z,17.20
2023-02-13T09:50:48.820Z,17.54
2023-02-13T09:51:48.802Z,17.94
2023-02-13T09:52:48.783Z,17.76
2023-02-13T09:53:48.778Z,17.60
2023-02-13T09:54:48.769Z,17.31
2023-02-13T09:55:48.756Z,17.26
2023-02-13T09:56:48.733Z,17.46
2023-02-13T09:57:48.718Z,17.78
2023-02-13T09:58:48.701Z,18.05
2023-02-13T09:59:48.703Z,18.13
2023-02-13T10:00:50.793Z,18.18
2023-02-13T10:01:48.721Z,18.31
2023-02-13T10:02:48.651Z,18.47
2023-02-13T10:03:48.642Z,18.55
2023-02-13T10:04:48.739Z,18.31
2023-02-13T10:05:48.652Z,18.83
2023-02-13T10:06:48.607Z,18.98
2023-02-13T10:07:48.589Z,18.65
2023-02-13T10:08:48.574Z,18.28
2023-02-13T10:09:48.584Z,17.26
2023-02-13T10:10:48.551Z,17.19
2023-02-13T10:11:48.542Z,17.36
2023-02-13T10:12:48.522Z,17.71
2023-02-13T10:13:48.511Z,18.04
2023-02-13T10:14:48.516Z,18.23
2023-02-13T10:15:48.567Z,18.50
2023-02-13T10:16:48.475Z,18.28
2023-02-13T10:17:48.464Z,18.45
2023-02-13T10:18:48.453Z,18.70
2023-02-13T10:19:48.453Z,18.93
2023-02-13T10:20:48.457Z,19.24
2023-02-13T10:21:48.418Z,19.27
2023-02-13T10:22:48.401Z,19.26
2023-02-13T10:23:48.395Z,19.40
2023-02-13T10:24:48.395Z,19.58
2023-02-13T10:25:48.369Z,19.44
2023-02-13T10:26:48.370Z,19.62
2023-02-13T10:27:48.353Z,19.96
2023-02-13T10:28:48.332Z,19.63
2023-02-13T10:29:48.337Z,19.71
2023-02-13T10:30:48.395Z,19.64
2023-02-13T10:31:48.455Z,19.62
2023-02-13T10:32:48.285Z,19.56
2023-02-13T10:33:48.268Z,18.56
2023-02-13T10:34:48.273Z,18.23
2023-02-13T10:35:48.241Z,18.52
2023-02-13T10:36:48.267Z,19.04
2023-02-13T10:37:48.217Z,19.62
2023-02-13T10:38:48.210Z,18.25
2023-02-13T10:39:48.206Z,17.97
2023-02-13T10:40:48.185Z,18.01
2023-02-13T10:41:48.167Z,17.46
2023-02-13T10:42:48.157Z,17.08
2023-02-13T10:43:48.147Z,16.99
2023-02-13T10:44:48.150Z,16.60
2023-02-13T10:45:48.120Z,16.24
2023-02-13T10:46:48.132Z,16.60
2023-02-13T10:47:48.089Z,17.52
2023-02-13T10:48:48.085Z,18.18
2023-02-13T10:49:48.117Z,18.22
2023-02-13T10:50:48.057Z,16.24
2023-02-13T10:51:48.049Z,15.92
2023-02-13T10:52:48.059Z,16.57
2023-02-13T10:53:48.026Z,15.83
2023-02-13T10:54:48.020Z,16.35
2023-02-13T10:55:48.010Z,16.51
2023-02-13T10:56:47.986Z,16.71
2023-02-13T10:57:47.966Z,15.76
2023-02-13T10:58:47.966Z,15.54
2023-02-13T10:59:47.944Z,14.51
2023-02-13T11:00:47.948Z,13.68
2023-02-13T11:01:47.993Z,13.54
2023-02-13T11:02:47.912Z,14.33
2023-02-13T11:03:47.890Z,15.25
2023-02-13T11:04:47.893Z,15.37
2023-02-13T11:05:47.877Z,15.67
2023-02-13T11:06:47.860Z,16.31
2023-02-13T11:07:47.843Z,16.74
2023-02-13T11:08:47.852Z,16.41
2023-02-13T11:09:47.830Z,16.93
2023-02-13T11:10:47.814Z,17.79
2023-02-13T11:11:47.788Z,18.95
2023-02-13T11:12:47.780Z,19.89
2023-02-13T11:13:47.770Z,19.64
2023-02-13T11:14:47.754Z,18.03
2023-02-13T11:15:47.780Z,16.69
2023-02-13T11:16:47.729Z,15.22
2023-02-13T11:17:47.724Z,15.27
2023-02-13T11:18:47.707Z,16.32
2023-02-13T11:19:47.687Z,15.80
2023-02-13T11:20:47.700Z,15.95
2023-02-13T11:21:47.665Z,16.51
2023-02-13T11:22:47.652Z,17.26
2023-02-13T11:23:47.637Z,16.87
2023-02-13T11:24:47.651Z,16.60
2023-02-13T11:25:47.632Z,16.56
2023-02-13T11:26:47.605Z,17.04
2023-02-13T11:27:47.589Z,17.54
2023-02-13T11:28:47.584Z,17.24
2023-02-13T11:29:47.583Z,17.49
2023-02-13T11:30:47.588Z,16.87
2023-02-13T11:31:47.705Z,16.86
2023-02-13T11:32:47.527Z,16.66
2023-02-13T11:33:47.526Z,16.97
2023-02-13T11:34:47.511Z,17.44
2023-02-13T11:35:47.514Z,18.03
2023-02-13T11:36:47.476Z,17.09
2023-02-13T11:37:47.483Z,16.29
2023-02-13T11:38:47.457Z,16.01
2023-02-13T11:39:49.011Z,15.52
2023-02-13T11:40:47.469Z,16.28
2023-02-13T11:41:47.426Z,17.04
2023-02-13T11:42:47.404Z,16.75
2023-02-13T11:43:47.395Z,16.36
2023-02-13T11:44:47.387Z,16.76
2023-02-13T11:45:47.383Z,17.15
2023-02-13T11:46:47.486Z,17.74
2023-02-13T11:47:47.343Z,17.86
2023-02-13T11:48:47.330Z,18.07
2023-02-13T11:49:47.310Z,18.53
2023-02-13T11:50:47.316Z,16.96
2023-02-13T11:51:47.290Z,16.93
2023-02-13T11:52:47.276Z,17.33
2023-02-13T11:53:47.260Z,18.59
2023-02-13T11:54:47.254Z,19.52
2023-02-13T11:55:47.254Z,20.06
2023-02-13T11:57:03.193Z,20.65
2023-02-13T11:57:48.219Z,20.21
2023-02-13T11:58:47.244Z,20.25
2023-02-13T11:59:47.192Z,19.24
2023-02-13T12:00:47.192Z,19.95
2023-02-13T12:01:47.165Z,20.39
2023-02-13T12:02:47.329Z,21.25
2023-02-13T12:03:47.208Z,22.07
2023-02-13T12:04:47.124Z,22.72
2023-02-13T12:05:47.114Z,21.27
2023-02-13T12:06:47.124Z,20.41
2023-02-13T12:07:47.088Z,19.63
2023-02-13T12:08:47.082Z,19.15
2023-02-13T12:09:47.068Z,19.07
2023-02-13T12:10:47.055Z,19.91
2023-02-13T12:11:47.085Z,19.88
2023-02-13T12:12:47.056Z,20.19
2023-02-13T12:13:47.022Z,20.66
2023-02-13T12:14:47.009Z,20.80
2023-02-13T12:15:46.997Z,21.21
2023-02-13T12:16:47.040Z,21.17
2023-02-13T12:17:46.978Z,20.48
2023-02-13T12:18:46.959Z,20.09
2023-02-13T12:19:46.945Z,20.50
2023-02-13T12:20:46.940Z,20.25
2023-02-13T12:21:46.943Z,20.19
2023-02-13T12:22:46.914Z,20.97
2023-02-13T12:23:46.896Z,21.33
2023-02-13T12:24:46.881Z,20.16
2023-02-13T12:25:46.880Z,20.93
2023-02-13T12:26:46.873Z,21.72
2023-02-13T12:27:46.842Z,22.45
2023-02-13T12:28:46.869Z,23.00
2023-02-13T12:29:46.827Z,22.18
2023-02-13T12:30:46.805Z,20.66
2023-02-13T12:31:46.908Z,19.08
2023-02-13T12:32:46.789Z,19.24
2023-02-13T12:33:46.772Z,20.32
2023-02-13T12:34:46.759Z,21.40
2023-02-13T12:35:46.738Z,21.95
2023-02-13T12:36:46.759Z,22.08
2023-02-13T12:37:46.720Z,22.65
2023-02-13T12:38:46.704Z,21.88
2023-02-13T12:39:46.687Z,19.96
2023-02-13T12:40:46.683Z,18.78
2023-02-13T12:41:46.680Z,17.42
2023-02-13T12:42:46.685Z,17.89
2023-02-13T12:43:46.637Z,18.29
2023-02-13T12:44:46.647Z,18.00
2023-02-13T12:45:46.641Z,19.63
2023-02-13T12:46:46.614Z,20.69
2023-02-13T12:47:46.585Z,20.63
2023-02-13T12:48:46.569Z,20.24
2023-02-13T12:49:46.561Z,20.24
2023-02-13T12:50:46.551Z,20.92
2023-02-13T12:51:46.560Z,20.19
2023-02-13T12:52:46.527Z,20.47
2023-02-13T12:53:46.513Z,20.78
2023-02-13T12:54:46.508Z,21.33
2023-02-13T12:55:46.485Z,20.24
2023-02-13T12:56:46.496Z,20.24
2023-02-13T12:57:46.459Z,20.43
2023-02-13T12:58:46.448Z,20.66
2023-02-13T12:59:46.438Z,21.25
2023-02-13T13:00:46.510Z,21.05
2023-02-13T13:01:46.429Z,20.22
2023-02-13T13:02:46.473Z,19.91
2023-02-13T13:03:46.388Z,19.66
2023-02-13T13:04:46.370Z,20.09
2023-02-13T13:05:50.683Z,20.55
2023-02-13T13:06:46.365Z,21.17
2023-02-13T13:07:46.346Z,21.77
2023-02-13T13:08:46.327Z,22.45